createdAt,value
2023-01-21T00:00:38.816Z,15.07
2023-01-21T00:03:21.450Z,14.27
2023-01-21T00:05:47.668Z,13.50
2023-01-21T00:08:14.161Z,13.57
2023-01-21T00:10:40.368Z,13.70
2023-01-21T00:13:07.156Z,14.73
2023-01-21T00:15:35.489Z,15.17
2023-01-21T00:18:02.126Z,15.67
2023-01-21T00:20:28.274Z,13.33
2023-01-21T00:22:54.960Z,13.20
2023-01-21T00:25:21.723Z,13.63
2023-01-21T00:27:48.152Z,13.20
2023-01-21T00:30:14.536Z,12.30
2023-01-21T00:32:41.552Z,13.67
2023-01-21T00:35:08.453Z,13.43
2023-01-21T00:37:34.952Z,13.43
2023-01-21T00:40:01.257Z,13.60
2023-01-21T00:42:27.956Z,12.47
2023-01-21T00:44:56.587Z,13.13
2023-01-21T00:47:23.793Z,12.80
2023-01-21T00:49:50.093Z,13.07
2023-01-21T00:52:16.829Z,14.17
2023-01-21T00:54:43.020Z,10.60
2023-01-21T00:57:09.628Z,11.20
2023-01-21T00:59:35.949Z,16.83
2023-01-21T01:02:02.384Z,11.60
2023-01-21T01:04:28.573Z,12.23
2023-01-21T01:06:55.018Z,11.70
2023-01-21T01:09:21.156Z,13.03
2023-01-21T01:11:48.465Z,12.43
2023-01-21T01:14:14.726Z,12.23
2023-01-21T01:16:41.166Z,12.70
2023-01-21T01:19:07.299Z,12.93
2023-01-21T01:21:33.752Z,12.23
2023-01-21T01:24:02.396Z,12.93
2023-01-21T01:26:29.062Z,12.70
2023-01-21T01:28:55.194Z,11.70
2023-01-21T01:31:21.786Z,12.57
2023-01-21T01:33:48.060Z,12.00
2023-01-21T01:36:23.115Z,12.47
2023-01-21T01:38:50.599Z,12.10
2023-01-21T01:41:29.508Z,12.17
2023-01-21T01:43:57.338Z,9.67
2023-01-21T01:46:27.174Z,11.67
2023-01-21T01:49:20.681Z,10.57
2023-01-21T01:51:57.756Z,10.87
2023-01-21T01:54:29.431Z,13.13
2023-01-21T01:56:59.885Z,11.93
2023-01-21T01:59:27.504Z,12.87
2023-01-21T02:01:56.178Z,12.17
2023-01-21T02:04:28.871Z,12.47
2023-01-21T02:06:57.070Z,12.93
2023-01-21T02:09:28.927Z,13.17
2023-01-21T02:12:00.831Z,13.67
2023-01-21T02:14:29.128Z,13.73
2023-01-21T02:17:29.301Z,13.17
2023-01-21T02:20:17.056Z,12.67
2023-01-21T02:23:11.588Z,13.53
2023-01-21T02:25:53.198Z,13.33
2023-01-21T02:28:57.883Z,13.77
2023-01-21T02:31:47.905Z,11.50
2023-01-21T02:34:44.194Z,13.23
2023-01-21T02:37:17.422Z,12.73
2023-01-21T02:39:57.701Z,13.20
2023-01-21T02:42:26.565Z,13.10
2023-01-21T02:45:32.148Z,12.57
2023-01-21T02:48:05.619Z,14.80
2023-01-21T02:50:36.081Z,12.43
2023-01-21T02:53:03.776Z,10.33
2023-01-21T02:55:35.140Z,12.20
2023-01-21T02:58:11.179Z,13.27
2023-01-21T03:01:08.318Z,12.20
2023-01-21T03:03:46.410Z,11.00
2023-01-21T03:06:27.353Z,11.47
2023-01-21T03:09:01.291Z,12.57
2023-01-21T03:11:31.143Z,12.00
2023-01-21T03:14:22.491Z,13.40
2023-01-21T03:17:02.750Z,12.20
2023-01-21T03:19:58.954Z,9.67
2023-01-21T03:22:28.901Z,13.57
2023-01-21T03:24:57.700Z,28.93
2023-01-21T03:27:27.464Z,26.03
2023-01-21T03:29:58.985Z,19.97
2023-01-21T03:32:28.193Z,21.27
2023-01-21T03:34:56.165Z,16.77
2023-01-21T03:37:35.964Z,14.87
2023-01-21T03:40:06.887Z,12.70
2023-01-21T03:42:33.472Z,12.43
2023-01-21T03:44:59.810Z,12.67
2023-01-21T03:47:31.471Z,11.77
2023-01-21T03:50:31.059Z,11.87
2023-01-21T03:52:57.497Z,11.37
2023-01-21T03:55:23.671Z,11.33
2023-01-21T03:57:50.108Z,11.17
2023-01-21T04:00:17.172Z,10.13
2023-01-21T04:02:43.736Z,11.70
2023-01-21T04:05:10.092Z,10.60
2023-01-21T04:07:36.546Z,12.13
2023-01-21T04:10:02.961Z,11.33
2023-01-21T04:12:29.450Z,11.07
2023-01-21T04:14:56.705Z,11.23
2023-01-21T04:17:23.448Z,10.63
2023-01-21T04:19:49.700Z,10.60
2023-01-21T04:22:16.095Z,10.53
2023-01-21T04:24:42.226Z,9.53
2023-01-21T04:27:08.619Z,10.00
2023-01-21T04:29:34.756Z,11.00
2023-01-21T04:32:01.300Z,10.37
2023-01-21T04:34:27.475Z,11.00
2023-01-21T04:36:53.893Z,9.80
2023-01-21T04:39:20.121Z,12.00
2023-01-21T04:41:46.523Z,11.73
2023-01-21T04:44:12.848Z,9.67
2023-01-21T04:46:39.296Z,10.13
2023-01-21T04:49:05.586Z,11.03
2023-01-21T04:51:32.113Z,10.10
2023-01-21T04:53:58.389Z,11.07
2023-01-21T04:56:24.937Z,9.60
2023-01-21T04:58:51.043Z,12.07
2023-01-21T05:01:17.536Z,16.70
2023-01-21T05:03:43.736Z,14.00
2023-01-21T05:06:10.163Z,13.07
2023-01-21T05:08:36.380Z,11.17
2023-01-21T05:11:02.840Z,9.03
2023-01-21T05:13:29.009Z,9.20
2023-01-21T05:15:55.490Z,10.70
2023-01-21T05:18:21.668Z,9.90
2023-01-21T05:20:48.366Z,10.87
2023-01-21T05:23:14.544Z,11.03
2023-01-21T05:25:40.931Z,11.43
2023-01-21T05:28:07.473Z,11.17
2023-01-21T05:30:34.018Z,10.23
2023-01-21T05:33:00.194Z,10.40
2023-01-21T05:35:27.012Z,10.80
2023-01-21T05:37:53.136Z,9.73
2023-01-21T05:40:20.158Z,9.77
2023-01-21T05:42:46.520Z,10.20
2023-01-21T05:45:13.795Z,10.57
2023-01-21T05:47:40.162Z,11.30
2023-01-21T05:50:07.412Z,11.27
2023-01-21T05:52:34.061Z,10.73
2023-01-21T05:55:02.507Z,9.70
2023-01-21T05:57:30.342Z,10.37
2023-01-21T05:59:57.266Z,10.67
2023-01-21T06:02:23.769Z,10.27
2023-01-21T06:04:50.542Z,9.83
2023-01-21T06:07:16.768Z,9.53
2023-01-21T06:09:43.253Z,10.10
2023-01-21T06:12:09.421Z,10.03
2023-01-21T06:14:36.282Z,9.77
2023-01-21T06:17:02.600Z,8.90
2023-01-21T06:19:29.084Z,10.43
2023-01-21T06:21:55.229Z,9.33
2023-01-21T06:24:22.004Z,9.03
2023-01-21T06:26:48.342Z,8.57
2023-01-21T06:29:14.900Z,9.47
2023-01-21T06:31:41.402Z,8.70
2023-01-21T06:34:09.367Z,8.67
2023-01-21T06:36:35.648Z,8.63
2023-01-21T06:39:02.600Z,9.60
2023-01-21T06:41:29.439Z,8.60
2023-01-21T06:43:55.920Z,8.27
2023-01-21T06:46:22.220Z,8.90
2023-01-21T06:48:48.877Z,8.50
2023-01-21T06:51:15.211Z,9.93
2023-01-21T06:53:41.906Z,8.80
2023-01-21T06:56:08.040Z,11.27
2023-01-21T06:58:34.476Z,9.17
2023-01-21T07:01:00.616Z,8.57
2023-01-21T07:03:28.417Z,8.53
2023-01-21T07:05:54.552Z,8.23
2023-01-21T07:08:21.075Z,9.17
2023-01-21T07:10:47.910Z,7.43
2023-01-21T07:13:14.569Z,8.73
2023-01-21T07:15:40.848Z,9.23
2023-01-21T07:18:07.479Z,7.17
2023-01-21T07:20:34.000Z,7.13
2023-01-21T07:23:01.011Z,8.57
2023-01-21T07:25:27.369Z,7.80
2023-01-21T07:27:53.838Z,7.53
2023-01-21T07:30:20.741Z,7.87
2023-01-21T07:32:47.373Z,7.93
2023-01-21T07:35:13.839Z,7.93
2023-01-21T07:37:40.635Z,6.87
2023-01-21T07:40:07.652Z,8.93
2023-01-21T07:42:34.330Z,7.73
2023-01-21T07:45:03.082Z,8.50
2023-01-21T07:47:29.907Z,8.17
2023-01-21T07:49:56.368Z,6.57
2023-01-21T07:52:23.206Z,6.43
2023-01-21T07:54:49.455Z,7.23
2023-01-21T07:57:15.980Z,6.60
2023-01-21T07:59:42.380Z,6.70
2023-01-21T08:02:10.406Z,8.70
2023-01-21T08:04:36.867Z,7.80
2023-01-21T08:07:09.291Z,7.47
2023-01-21T08:09:37.055Z,7.73
2023-01-21T08:12:05.077Z,6.67
2023-01-21T08:14:32.025Z,9.50
2023-01-21T08:16:59.773Z,7.93
2023-01-21T08:19:26.633Z,7.03
2023-01-21T08:21:53.361Z,6.87
2023-01-21T08:24:19.597Z,6.17
2023-01-21T08:26:46.141Z,6.57
2023-01-21T08:29:12.545Z,5.73
2023-01-21T08:31:39.178Z,6.07
2023-01-21T08:34:05.571Z,6.00
2023-01-21T08:36:32.070Z,6.10
2023-01-21T08:39:01.132Z,5.77
2023-01-21T08:41:29.278Z,5.87
2023-01-21T08:43:55.531Z,6.40
2023-01-21T08:46:22.117Z,7.00
2023-01-21T08:48:49.110Z,6.27
2023-01-21T08:51:16.127Z,5.83
2023-01-21T08:53:42.646Z,5.87
2023-01-21T08:56:09.162Z,6.47
2023-01-21T08:58:35.321Z,4.73
2023-01-21T09:01:07.108Z,4.87
2023-01-21T09:03:33.640Z,4.77
2023-01-21T09:06:01.666Z,6.37
2023-01-21T09:08:28.635Z,4.87
2023-01-21T09:11:01.832Z,4.93
2023-01-21T09:13:33.192Z,6.37
2023-01-21T09:16:00.742Z,5.27
2023-01-21T09:18:27.027Z,4.97
2023-01-21T09:20:53.820Z,5.23
2023-01-21T09:23:26.008Z,4.43
2023-01-21T09:25:53.720Z,3.77
2023-01-21T09:28:21.355Z,3.90
2023-01-21T09:30:48.286Z,4.33
2023-01-21T09:33:14.895Z,4.33
2023-01-21T09:35:41.512Z,4.27
2023-01-21T09:38:07.646Z,4.97
2023-01-21T09:40:35.123Z,4.23
2023-01-21T09:43:10.742Z,5.10
2023-01-21T09:45:39.608Z,4.67
2023-01-21T09:48:08.319Z,4.00
2023-01-21T09:50:38.033Z,4.63
2023-01-21T09:53:24.177Z,4.97
2023-01-21T09:55:53.060Z,4.77
2023-01-21T09:58:29.754Z,3.73
2023-01-21T10:01:11.293Z,4.93
2023-01-21T10:03:40.379Z,3.60
2023-01-21T10:06:19.079Z,4.87
2023-01-21T10:09:00.937Z,3.80
2023-01-21T10:11:46.312Z,3.23
2023-01-21T10:14:29.236Z,4.67
2023-01-21T10:17:24.791Z,4.57
2023-01-21T10:20:05.339Z,4.60
2023-01-21T10:22:32.035Z,4.63
2023-01-21T10:25:17.230Z,3.93
2023-01-21T10:27:44.970Z,4.20
2023-01-21T10:30:25.981Z,4.17
2023-01-21T10:32:54.763Z,3.87
2023-01-21T10:35:37.489Z,3.77
2023-01-21T10:38:39.402Z,3.90
2023-01-21T10:41:23.998Z,7.43
2023-01-21T10:44:15.375Z,7.30
2023-01-21T10:46:51.152Z,9.83
2023-01-21T10:49:41.262Z,6.93
2023-01-21T10:52:13.696Z,11.43
2023-01-21T10:54:57.237Z,19.83
2023-01-21T10:57:53.467Z,11.97
2023-01-21T11:00:25.547Z,11.70
2023-01-21T11:02:59.526Z,11.93
2023-01-21T11:05:27.788Z,8.93
2023-01-21T11:07:55.126Z,16.13
2023-01-21T11:10:24.077Z,15.47
2023-01-21T11:12:52.433Z,11.43
2023-01-21T11:19:41.912Z,13.30
2023-01-21T11:22:11.652Z,10.23
2023-01-21T11:24:49.752Z,17.03
2023-01-21T11:27:31.356Z,13.37
2023-01-21T11:29:57.777Z,15.00
2023-01-21T11:32:26.895Z,16.90
2023-01-21T11:35:04.383Z,17.23
2023-01-21T11:37:33.073Z,17.57
2023-01-21T11:40:28.085Z,16.17
2023-01-21T11:42:56.084Z,19.17
2023-01-21T11:45:29.754Z,35.97
2023-01-21T11:47:57.720Z,14.90
2023-01-21T11:50:36.914Z,18.80
2023-01-21T11:53:07.323Z,12.70
2023-01-21T11:55:41.440Z,10.13
2023-01-21T11:58:24.369Z,15.80
2023-01-21T12:00:54.598Z,10.53
2023-01-21T12:03:26.216Z,19.53
2023-01-21T12:05:53.218Z,12.13
2023-01-21T12:08:29.252Z,16.17
2023-01-21T12:11:01.228Z,22.63
2023-01-21T12:13:36.435Z,15.40
2023-01-21T12:16:29.548Z,35.57
2023-01-21T12:19:17.022Z,20.37
2023-01-21T12:21:52.311Z,20.23
2023-01-21T12:24:21.731Z,20.37
2023-01-21T12:26:58.117Z,27.67
2023-01-21T12:29:43.409Z,20.47
2023-01-21T12:32:38.272Z,28.27
2023-01-21T12:35:16.957Z,31.77
2023-01-21T12:37:48.957Z,30.57
2023-01-21T12:40:21.000Z,28.53
2023-01-21T12:42:54.327Z,20.83
2023-01-21T12:45:28.210Z,20.63
2023-01-21T12:48:05.263Z,34.43
2023-01-21T12:50:40.336Z,30.10
2023-01-21T12:53:19.715Z,16.50
2023-01-21T12:55:49.343Z,109.17
2023-01-21T12:58:20.753Z,37.53
2023-01-21T13:00:50.416Z,21.23
2023-01-21T13:03:38.592Z,20.80
2023-01-21T13:06:18.268Z,32.97
2023-01-21T13:08:54.037Z,27.27
2023-01-21T13:11:25.675Z,26.83
2023-01-21T13:14:06.773Z,24.90
2023-01-21T13:16:55.417Z,19.27
2023-01-21T13:19:22.336Z,23.10
2023-01-21T13:22:02.708Z,22.07
2023-01-21T13:24:38.863Z,13.60
2023-01-21T13:27:21.724Z,15.60
2023-01-21T13:29:48.098Z,17.97
2023-01-21T13:32:31.369Z,48.27
2023-01-21T13:35:12.963Z,28.40
2023-01-21T13:37:59.715Z,17.87
2023-01-21T13:41:00.559Z,27.50
2023-01-21T13:43:55.403Z,13.90
2023-01-21T13:46:25.082Z,17.43
2023-01-21T13:49:13.182Z,13.07
2023-01-21T13:51:44.611Z,24.13
2023-01-21T13:54:23.495Z,17.33
2023-01-21T13:57:12.703Z,27.23
2023-01-21T13:59:46.901Z,19.57
2023-01-21T14:02:23.919Z,24.30
2023-01-21T14:05:02.913Z,18.60
2023-01-21T14:07:38.392Z,11.33
2023-01-21T14:10:18.054Z,14.93
2023-01-21T14:13:02.941Z,21.43
2023-01-21T14:15:41.906Z,16.63
2023-01-21T14:18:44.133Z,15.57
2023-01-21T14:21:28.668Z,15.27
2023-01-21T14:24:11.102Z,15.00
2023-01-21T14:26:59.930Z,16.77
2023-01-21T14:29:34.088Z,14.10
2023-01-21T14:32:23.917Z,18.13
2023-01-21T14:35:27.604Z,12.60
2023-01-21T14:38:21.138Z,8.43
2023-01-21T14:40:49.804Z,14.30
2023-01-21T14:43:31.667Z,15.23
2023-01-21T14:46:01.425Z,7.83
2023-01-21T14:48:39.051Z,5.33
2023-01-21T14:51:05.408Z,4.57
2023-01-21T14:54:03.482Z,11.10
2023-01-21T14:56:32.457Z,39.93
2023-01-21T14:59:08.449Z,7.57
2023-01-21T15:01:35.274Z,7.77
2023-01-21T15:04:07.720Z,5.60
2023-01-21T15:11:00.594Z,4.60
2023-01-21T15:13:33.095Z,4.60
2023-01-21T15:16:16.877Z,4.23
2023-01-21T15:19:04.221Z,5.57
2023-01-21T15:21:42.946Z,6.77
2023-01-21T15:24:22.287Z,7.03
2023-01-21T15:27:11.852Z,6.20
2023-01-21T15:29:40.536Z,6.80
2023-01-21T15:32:31.621Z,5.37
2023-01-21T15:34:59.901Z,15.53
2023-01-21T15:37:28.820Z,10.47
2023-01-21T15:40:01.721Z,6.07
2023-01-21T15:42:41.887Z,17.30
2023-01-21T15:45:20.578Z,11.97
2023-01-21T15:48:11.600Z,20.93
2023-01-21T15:50:58.556Z,9.03
2023-01-21T15:54:00.538Z,5.40
2023-01-21T15:56:54.805Z,5.80
2023-01-21T15:59:34.723Z,6.70
2023-01-21T16:02:22.109Z,5.70
2023-01-21T16:05:07.247Z,7.03
2023-01-21T16:07:49.462Z,11.10
2023-01-21T16:10:28.049Z,12.57
2023-01-21T16:13:18.981Z,4.23
2023-01-21T16:16:08.394Z,4.40
2023-01-21T16:18:35.039Z,5.70
2023-01-21T16:21:02.951Z,4.87
2023-01-21T16:23:36.477Z,5.43
2023-01-21T16:26:03.336Z,5.93
2023-01-21T16:28:42.038Z,8.77
2023-01-21T16:31:09.671Z,7.17
2023-01-21T16:33:36.882Z,5.77
2023-01-21T16:36:07.250Z,5.93
2023-01-21T16:38:36.324Z,6.63
2023-01-21T16:41:05.792Z,10.60
2023-01-21T16:43:36.556Z,5.73
2023-01-21T16:46:05.539Z,6.63
2023-01-21T16:48:33.575Z,7.30
2023-01-21T16:51:00.635Z,5.43
2023-01-21T16:53:27.807Z,6.93
2023-01-21T16:55:56.582Z,5.97
2023-01-21T16:58:34.143Z,4.80
2023-01-21T17:01:19.876Z,6.73
2023-01-21T17:03:49.062Z,15.20
2023-01-21T17:06:30.092Z,8.40
2023-01-21T17:09:01.256Z,9.37
2023-01-21T17:11:28.120Z,6.40
2023-01-21T17:13:54.941Z,12.00
2023-01-21T17:16:21.302Z,6.30
2023-01-21T17:19:21.092Z,21.43
2023-01-21T17:21:54.740Z,16.27
2023-01-21T17:24:33.481Z,16.07
2023-01-21T17:27:21.253Z,10.83
2023-01-21T17:29:47.881Z,7.90
2023-01-21T17:32:33.456Z,8.50
2023-01-21T17:35:17.105Z,4.87
2023-01-21T17:37:50.525Z,5.47
2023-01-21T17:40:27.858Z,6.67
2023-01-21T17:42:55.290Z,8.07
2023-01-21T17:45:29.003Z,8.80
2023-01-21T17:48:14.529Z,14.60
2023-01-21T17:50:46.668Z,7.83
2023-01-21T17:53:26.596Z,5.57
2023-01-21T17:56:14.685Z,5.40
2023-01-21T17:58:50.459Z,10.87
2023-01-21T18:01:19.601Z,4.43
2023-01-21T18:03:46.239Z,5.40
2023-01-21T18:06:19.754Z,7.47
2023-01-21T18:08:46.587Z,7.37
2023-01-21T18:11:19.229Z,6.40
2023-01-21T18:13:46.954Z,9.17
2023-01-21T18:16:15.793Z,5.27
2023-01-21T18:18:44.342Z,6.67
2023-01-21T18:21:21.064Z,18.30
2023-01-21T18:23:49.601Z,20.87
2023-01-21T18:26:29.632Z,5.13
2023-01-21T18:28:56.575Z,5.80
2023-01-21T18:31:25.021Z,4.70
2023-01-21T18:33:52.605Z,5.03
2023-01-21T18:36:20.041Z,3.43
2023-01-21T18:38:47.652Z,3.87
2023-01-21T18:41:14.819Z,3.83
2023-01-21T18:43:42.333Z,3.97
2023-01-21T18:46:14.216Z,3.63
2023-01-21T18:48:42.281Z,4.70
2023-01-21T18:51:09.952Z,3.80
2023-01-21T18:53:36.400Z,3.77
2023-01-21T18:56:05.574Z,3.00
2023-01-21T18:58:32.515Z,3.03
2023-01-21T19:01:03.978Z,4.17
2023-01-21T19:03:35.146Z,4.37
2023-01-21T19:06:02.012Z,5.77
2023-01-21T19:08:28.907Z,4.97
2023-01-21T19:10:55.902Z,6.70
2023-01-21T19:13:22.515Z,5.60
2023-01-21T19:15:50.014Z,5.57
2023-01-21T19:18:16.806Z,4.97
2023-01-21T19:20:44.100Z,4.43
2023-01-21T19:23:16.682Z,7.10
2023-01-21T19:25:49.993Z,4.77
2023-01-21T19:28:18.399Z,4.47
2023-01-21T19:30:45.996Z,4.33
2023-01-21T19:33:12.813Z,4.40
2023-01-21T19:35:43.945Z,4.07
2023-01-21T19:38:15.734Z,3.50
2023-01-21T19:40:42.699Z,3.90
2023-01-21T19:43:13.849Z,3.67
2023-01-21T19:45:41.630Z,5.47
2023-01-21T19:48:13.492Z,4.77
2023-01-21T19:50:40.408Z,4.87
2023-01-21T19:53:10.482Z,5.53
2023-01-21T19:55:39.596Z,6.67
2023-01-21T19:58:23.562Z,3.97
2023-01-21T20:00:53.064Z,4.60
2023-01-21T20:03:22.727Z,6.10
2023-01-21T20:06:02.545Z,6.27
2023-01-21T20:08:30.852Z,6.50
2023-01-21T20:10:57.445Z,5.43
2023-01-21T20:13:25.476Z,14.17
2023-01-21T20:15:53.676Z,24.63
2023-01-21T20:18:27.592Z,9.20
2023-01-21T20:20:54.688Z,6.40
2023-01-21T20:23:23.167Z,5.67
2023-01-21T20:25:54.548Z,6.20
2023-01-21T20:28:24.681Z,7.63
2023-01-21T20:30:54.129Z,5.03
2023-01-21T20:33:23.023Z,9.33
2023-01-21T20:35:53.362Z,7.07
2023-01-21T20:38:29.540Z,11.30
2023-01-21T20:40:56.635Z,10.63
2023-01-21T20:43:23.769Z,8.13
2023-01-21T20:45:51.010Z,6.53
2023-01-21T20:48:25.303Z,5.93
2023-01-21T20:50:53.697Z,6.23
2023-01-21T20:53:21.251Z,4.30
2023-01-21T20:55:51.054Z,4.17
2023-01-21T20:58:19.259Z,4.30
2023-01-21T21:00:46.138Z,4.43
2023-01-21T21:03:15.986Z,4.27
2023-01-21T21:05:42.502Z,3.00
2023-01-21T21:08:20.841Z,3.40
2023-01-21T21:10:50.398Z,3.63
2023-01-21T21:13:18.059Z,3.30
2023-01-21T21:15:46.538Z,3.33
2023-01-21T21:18:14.472Z,3.20
2023-01-21T21:20:41.869Z,3.77
2023-01-21T21:23:13.609Z,2.73
2023-01-21T21:25:45.849Z,4.03
2023-01-21T21:28:15.422Z,4.90
2023-01-21T21:30:42.274Z,3.40
2023-01-21T21:33:16.100Z,2.90
2023-01-21T21:35:44.002Z,3.60
2023-01-21T21:38:14.726Z,3.73
2023-01-21T21:40:41.510Z,3.93
2023-01-21T21:43:31.377Z,2.60
2023-01-21T21:46:26.544Z,3.23
2023-01-21T21:48:53.212Z,3.40
2023-01-21T21:51:21.789Z,2.70
2023-01-21T21:53:49.182Z,2.80
2023-01-21T21:56:21.440Z,2.90
2023-01-21T21:58:50.046Z,3.60
2023-01-21T22:01:19.615Z,3.10
2023-01-21T22:03:46.805Z,4.07
2023-01-21T22:06:13.939Z,4.43
2023-01-21T22:08:43.530Z,4.30
2023-01-21T22:11:14.154Z,8.53
2023-01-21T22:13:42.829Z,5.20
2023-01-21T22:16:14.337Z,15.50
2023-01-21T22:18:41.153Z,6.23
2023-01-21T22:21:12.207Z,4.90
2023-01-21T22:23:38.779Z,4.30
2023-01-21T22:26:08.978Z,7.07
2023-01-21T22:28:36.050Z,5.03
2023-01-21T22:31:07.790Z,9.03
2023-01-21T22:33:36.377Z,4.63
2023-01-21T22:36:07.169Z,6.10
2023-01-21T22:38:35.588Z,5.10
2023-01-21T22:41:03.368Z,4.40
2023-01-21T22:43:31.327Z,4.23
2023-01-21T22:45:58.802Z,5.63
2023-01-21T22:48:26.888Z,4.13
2023-01-21T22:50:58.843Z,4.23
2023-01-21T22:53:26.877Z,4.70
2023-01-21T22:55:58.644Z,4.00
2023-01-21T22:58:26.797Z,3.53
2023-01-21T23:00:53.726Z,4.97
2023-01-21T23:03:22.289Z,4.90
2023-01-21T23:05:49.431Z,5.93
2023-01-21T23:08:17.165Z,5.00
2023-01-21T23:10:45.141Z,7.23
2023-01-21T23:13:15.908Z,7.73
2023-01-21T23:15:44.169Z,5.17
2023-01-21T23:18:12.701Z,5.47
2023-01-21T23:20:41.206Z,5.43
2023-01-21T23:23:09.211Z,5.03
2023-01-21T23:25:45.927Z,4.87
2023-01-21T23:28:13.761Z,4.30
2023-01-21T23:30:40.253Z,4.17
2023-01-21T23:33:07.550Z,4.17
2023-01-21T23:35:35.040Z,5.03
2023-01-21T23:38:03.118Z,4.20
2023-01-21T23:40:29.484Z,4.50
2023-01-21T23:42:56.060Z,4.17
2023-01-21T23:45:22.375Z,5.13
2023-01-21T23:47:48.880Z,3.87
2023-01-21T23:50:15.484Z,4.50
2023-01-21T23:52:42.185Z,4.00
2023-01-21T23:55:09.844Z,4.80
2023-01-21T23:57:36.587Z,5.00
